Time;durP1;ratioP1;P1;durP2;ratioP2;P2;SDS_P1;SDS_P2;PMS_P1;PMS_P2;Temp;Humidity;BMP_temperature;BMP_pressure;BME280_temperature;BME280_humidity;BME280_pressure;Samples;Min_cycle;Max_cycle;Signal;HPM_P1;HPM_P2
2022/12/28 00:00:08;;;;;;;14.07;5.85;;;5.90;99.90;;;;;;5092100;28;20044;-73
2022/12/28 00:02:34;;;;;;;6.75;4.32;;;6.00;99.90;;;;;;5093952;28;20036;-72
2022/12/28 00:04:59;;;;;;;9.48;5.25;;;5.90;99.90;;;;;;5085011;28;20059;-73
2022/12/28 00:07:25;;;;;;;8.90;5.20;;;6.00;99.90;;;;;;5058445;28;20479;-73
2022/12/28 00:09:51;;;;;;;12.20;4.90;;;6.00;99.90;;;;;;5088201;28;20090;-72
2022/12/28 00:12:17;;;;;;;7.60;4.50;;;6.00;99.90;;;;;;5095657;28;20032;-73
2022/12/28 00:14:42;;;;;;;8.57;5.13;;;6.00;99.90;;;;;;5105639;27;20179;-73
2022/12/28 00:17:08;;;;;;;8.85;4.07;;;6.00;99.90;;;;;;5086564;28;20040;-73
2022/12/28 00:19:34;;;;;;;11.63;4.22;;;6.00;99.90;;;;;;5081843;28;20071;-73
2022/12/28 00:22:00;;;;;;;11.35;4.85;;;6.00;99.90;;;;;;5094813;28;20045;-73
2022/12/28 00:24:25;;;;;;;9.43;4.20;;;6.00;99.90;;;;;;5076361;28;20044;-72
2022/12/28 00:26:51;;;;;;;8.98;5.05;;;6.00;99.90;;;;;;5090966;28;20033;-73
2022/12/28 00:29:18;;;;;;;10.23;5.63;;;6.00;99.90;;;;;;5090458;28;20066;-73
2022/12/28 00:31:46;;;;;;;8.23;4.82;;;6.00;99.90;;;;;;5105176;27;20055;-73
2022/12/28 00:34:12;;;;;;;12.68;5.95;;;6.00;99.90;;;;;;5089819;28;20024;-72
2022/12/28 00:36:38;;;;;;;12.18;6.13;;;6.00;99.90;;;;;;5082692;28;20157;-72
2022/12/28 00:39:04;;;;;;;12.68;5.75;;;6.00;99.90;;;;;;5089720;28;20052;-73
2022/12/28 00:41:30;;;;;;;8.73;5.47;;;6.00;99.90;;;;;;5090619;28;20036;-72
2022/12/28 00:43:55;;;;;;;8.85;5.68;;;6.00;99.90;;;;;;5091698;28;20043;-73
2022/12/28 00:46:21;;;;;;;9.85;5.25;;;6.00;99.90;;;;;;5063559;28;20398;-73
2022/12/28 00:48:47;;;;;;;12.38;6.95;;;6.00;99.90;;;;;;5072182;28;20382;-73
2022/12/28 00:51:18;;;;;;;10.98;7.07;;;6.10;99.90;;;;;;5064837;28;20035;-73
2022/12/28 00:53:44;;;;;;;9.57;5.47;;;6.00;99.90;;;;;;5076509;28;20029;-73
2022/12/28 00:56:12;;;;;;;9.35;5.90;;;6.00;99.90;;;;;;5074817;28;20036;-73
2022/12/28 00:58:38;;;;;;;11.88;5.78;;;6.00;99.90;;;;;;5090803;28;20067;-73
2022/12/28 01:01:10;;;;;;;7.75;4.82;;;6.00;99.90;;;;;;5071612;28;20485;-73
2022/12/28 01:03:36;;;;;;;12.98;5.93;;;;;;;;;;5076416;28;20043;-72
2022/12/28 01:06:06;;;;;;;13.95;6.47;;;;;;;;;;5096677;28;20118;-72
2022/12/28 01:08:32;;;;;;;9.27;5.95;;;;;;;;;;5072755;28;20503;-72
2022/12/28 01:10:58;;;;;;;12.77;6.03;;;;;;;;;;5091355;28;20135;-70
2022/12/28 01:13:24;;;;;;;9.52;5.20;;;;;;;;;;5055992;28;20040;-73
2022/12/28 01:15:50;;;;;;;8.07;5.40;;;;;;;;;;5075892;28;20109;-73
2022/12/28 01:18:16;;;;;;;8.60;6.05;;;;;;;;;;5074957;28;20044;-72
2022/12/28 01:20:42;;;;;;;9.60;5.82;;;;;;;;;;5080115;28;20112;-73
2022/12/28 01:23:08;;;;;;;8.45;5.05;;;;;;;;;;5082606;28;20037;-72
2022/12/28 01:25:35;;;;;;;11.88;6.50;;;;;;;;;;5071985;28;20075;-73
2022/12/28 01:28:01;;;;;;;15.75;6.53;;;;;;;;;;5071998;28;20044;-73
2022/12/28 01:30:29;;;;;;;14.82;7.00;;;;;;;;;;5090132;28;20036;-73
2022/12/28 01:32:55;;;;;;;9.35;6.25;;;;;;;;;;5111287;27;20036;-73
2022/12/28 01:35:21;;;;;;;7.95;6.30;;;;;;;;;;5090060;28;20342;-72
2022/12/28 01:37:47;;;;;;;8.80;6.50;;;;;;;;;;5085504;28;20067;-72
2022/12/28 01:40:14;;;;;;;16.10;6.53;;;;;;;;;;5074455;28;20047;-73
2022/12/28 01:42:40;;;;;;;13.50;7.40;;;;;;;;;;5071414;28;20435;-71
2022/12/28 01:45:17;;;;;;;10.55;6.72;;;;;;;;;;5076643;28;20576;-73
2022/12/28 01:47:46;;;;;;;13.63;8.02;;;;;;;;;;5087516;28;20058;-73
2022/12/28 01:50:13;;;;;;;17.98;7.90;;;;;;;;;;5087373;28;20076;-73
2022/12/28 01:52:43;;;;;;;11.88;7.30;;;;;;;;;;5086336;28;20024;-73
2022/12/28 01:55:12;;;;;;;13.70;8.23;;;;;;;;;;5092715;28;20043;-73
2022/12/28 01:57:43;;;;;;;13.30;7.78;;;;;;;;;;5093838;28;20062;-73
2022/12/28 02:00:12;;;;;;;15.02;7.32;;;;;;;;;;5098951;28;20501;-73
2022/12/28 02:02:38;;;;;;;16.45;9.10;;;;;;;;;;5072230;28;20419;-73
2022/12/28 02:05:05;;;;;;;21.00;8.75;;;;;;;;;;5090896;28;20130;-73
2022/12/28 02:07:54;;;;;;;12.43;8.40;;;;;;;;;;5088666;28;20429;-73
2022/12/28 02:10:20;;;;;;;12.93;8.13;;;;;;;;;;5073843;28;20058;-73
2022/12/28 02:12:46;;;;;;;11.93;7.35;;;;;;;;;;5088389;28;20059;-74
2022/12/28 02:15:12;;;;;;;10.57;7.38;;;;;;;;;;5096399;28;20412;-73
2022/12/28 02:17:39;;;;;;;15.43;7.95;;;;;;;;;;5090236;28;20023;-73
2022/12/28 02:20:05;;;;;;;13.15;8.65;;;;;;;;;;5087930;28;20477;-74
2022/12/28 02:22:38;;;;;;;13.43;8.50;;;;;;;;;;5064659;28;20136;-76
2022/12/28 02:25:22;;;;;;;10.90;8.38;;;;;;;;;;5070634;28;20040;-76
2022/12/28 02:28:07;;;;;;;13.80;7.88;;;;;;;;;;5067261;28;20489;-76
2022/12/28 02:30:35;;;;;;;19.48;8.82;;;;;;;;;;5064964;28;20043;-76
2022/12/28 02:33:14;;;;;;;16.20;9.50;;;;;;;;;;5071680;28;20067;-72
2022/12/28 02:35:48;;;;;;;12.02;8.30;;;;;;;;;;5066014;28;20432;-76
2022/12/28 02:38:15;;;;;;;12.27;9.07;;;;;;;;;;5073473;28;20028;-76
2022/12/28 02:40:44;;;;;;;14.63;8.52;;;;;;;;;;5070271;28;20032;-77
2022/12/28 02:43:11;;;;;;;17.38;9.60;;;;;;;;;;5069671;28;20064;-76
2022/12/28 02:51:09;;;;;;;23.00;9.75;;;;;;;;;;5100197;27;20067;-77
2022/12/28 02:53:44;;;;;;;13.05;8.82;;;;;;;;;;5069202;28;20532;-76
2022/12/28 02:56:30;;;;;;;15.30;9.88;;;;;;;;;;5058417;28;20079;-76
2022/12/28 02:59:15;;;;;;;15.25;9.38;;;;;;;;;;5097259;28;20079;-77
2022/12/28 03:01:47;;;;;;;13.07;9.85;;;;;;;;;;5066996;28;20036;-77
2022/12/28 03:04:22;;;;;;;16.23;10.37;;;;;;;;;;5066739;28;20070;-77
2022/12/28 03:09:41;;;;;;;14.25;10.23;;;;;;;;;;5067171;28;20086;-75
2022/12/28 03:12:20;;;;;;;13.60;10.38;;;;;;;;;;5060340;28;20517;-78
2022/12/28 03:15:07;;;;;;;14.73;11.20;;;;;;;;;;5068848;28;20045;-77
2022/12/28 03:31:29;;;;;;;15.05;10.60;;;;;;;;;;5069873;28;20092;-77
2022/12/28 03:34:13;;;;;;;15.82;10.98;;;;;;;;;;5069144;28;20052;-78
2022/12/28 03:36:47;;;;;;;15.13;10.82;;;;;;;;;;5083131;28;20029;-78
2022/12/28 03:39:36;;;;;;;16.17;11.15;;;;;;;;;;5064307;28;20048;-77
2022/12/28 03:45:21;;;;;;;18.63;12.60;;;;;;;;;;5055878;28;20136;-77
2022/12/28 03:47:49;;;;;;;15.55;11.43;;;;;;;;;;5069767;28;20097;-77
2022/12/28 03:50:16;;;;;;;19.20;12.77;;;;;;;;;;5068431;28;20059;-77
2022/12/28 03:52:42;;;;;;;17.17;12.50;;;;;;;;;;5070701;28;20032;-76
2022/12/28 03:55:10;;;;;;;17.80;11.70;;;;;;;;;;5067809;28;20356;-76
2022/12/28 03:57:36;;;;;;;17.67;12.23;;;;;;;;;;5074673;28;20028;-76
2022/12/28 04:00:02;;;;;;;20.25;12.05;;;;;;;;;;5070427;28;20498;-76
2022/12/28 04:02:28;;;;;;;12.70;11.32;;;;;;;;;;5071050;28;20044;-76
2022/12/28 04:04:54;;;;;;;20.30;13.25;;;;;;;;;;5068725;28;20051;-77
2022/12/28 04:07:20;;;;;;;17.05;12.25;;;;;;;;;;5065028;28;20172;-78
2022/12/28 04:09:47;;;;;;;20.60;11.80;;;;;;;;;;5054782;28;20060;-77
2022/12/28 04:12:13;;;;;;;14.43;11.65;;;;;;;;;;5067924;28;20154;-77
2022/12/28 04:14:40;;;;;;;16.73;11.30;;;;;;;;;;5071498;28;20072;-76
2022/12/28 04:17:06;;;;;;;16.20;11.95;;;;;;;;;;5046914;28;20044;-76
2022/12/28 04:19:32;;;;;;;16.45;11.73;;;;;;;;;;5068349;28;20471;-76
2022/12/28 04:21:58;;;;;;;16.75;12.52;;;;;;;;;;5068146;28;20048;-77
2022/12/28 04:24:24;;;;;;;13.40;11.25;;;;;;;;;;5051772;28;20049;-74
2022/12/28 04:26:50;;;;;;;14.95;11.18;;;;;;;;;;5076205;28;20282;-76
2022/12/28 04:29:16;;;;;;;16.33;12.63;;;;;;;;;;5078200;28;20497;-75
2022/12/28 04:31:42;;;;;;;14.50;11.05;;;;;;;;;;5069910;28;20052;-76
2022/12/28 04:34:08;;;;;;;15.23;11.95;;;;;;;;;;5068830;28;20051;-76
2022/12/28 04:36:35;;;;;;;16.83;12.48;;;;;;;;;;5077191;28;20028;-76
2022/12/28 04:39:01;;;;;;;20.13;12.25;;;6.00;99.90;;;;;;5073900;28;20044;-77
2022/12/28 04:41:26;;;;;;;16.45;11.20;;;6.80;99.90;;;;;;5081384;28;20044;-77
2022/12/28 04:43:56;;;;;;;17.75;12.77;;;6.80;99.90;;;;;;5074855;28;20143;-77
2022/12/28 04:46:23;;;;;;;18.40;12.45;;;6.80;99.90;;;;;;5073598;28;20259;-77
2022/12/28 04:48:49;;;;;;;16.17;13.23;;;6.80;99.90;;;;;;5062383;28;20044;-77
2022/12/28 04:51:18;;;;;;;19.63;12.23;;;6.80;99.90;;;;;;5072046;28;20040;-79
2022/12/28 04:53:44;;;;;;;15.32;11.10;;;6.80;99.90;;;;;;5067266;28;20119;-76
2022/12/28 04:56:12;;;;;;;16.92;13.30;;;6.80;99.90;;;;;;5073495;28;20230;-76
2022/12/28 04:58:38;;;;;;;18.90;13.30;;;6.80;99.90;;;;;;5072065;28;20048;-77
2022/12/28 05:01:09;;;;;;;16.30;12.00;;;6.90;99.90;;;;;;5069369;28;20070;-76
2022/12/28 05:03:36;;;;;;;14.85;12.52;;;6.90;99.90;;;;;;5074093;28;20052;-77
2022/12/28 05:06:04;;;;;;;18.13;13.70;;;6.90;99.90;;;;;;5064818;28;20051;-76
2022/12/28 05:08:32;;;;;;;16.35;12.75;;;6.90;99.90;;;;;;5063540;28;20041;-76
2022/12/28 05:11:03;;;;;;;16.48;13.32;;;6.80;99.90;;;;;;5070311;28;20075;-76
2022/12/28 05:13:29;;;;;;;16.85;12.63;;;6.90;99.90;;;;;;5070627;28;20461;-77
2022/12/28 05:15:59;;;;;;;15.45;12.82;;;6.90;99.90;;;;;;5071592;28;20561;-76
2022/12/28 05:18:25;;;;;;;15.70;13.35;;;6.90;99.90;;;;;;5069788;28;20576;-76
2022/12/28 05:21:01;;;;;;;18.67;14.75;;;6.90;99.90;;;;;;5073371;28;20045;-75
2022/12/28 05:23:28;;;;;;;16.88;13.77;;;6.90;99.90;;;;;;5076047;28;20051;-77
2022/12/28 05:25:55;;;;;;;15.75;12.75;;;6.90;99.90;;;;;;5067955;28;20044;-78
2022/12/28 05:28:20;;;;;;;20.10;14.30;;;6.90;99.90;;;;;;5071617;28;20474;-75
2022/12/28 05:30:46;;;;;;;19.98;13.57;;;6.90;99.90;;;;;;5072397;28;20518;-75
2022/12/28 05:33:12;;;;;;;18.42;14.55;;;6.90;99.90;;;;;;5069197;28;20482;-76
2022/12/28 05:35:38;;;;;;;17.73;13.57;;;6.90;99.90;;;;;;5061424;28;20036;-77
2022/12/28 05:38:03;;;;;;;22.92;15.20;;;6.90;99.90;;;;;;5063984;28;20055;-77
2022/12/28 05:40:29;;;;;;;16.70;13.43;;;6.90;99.90;;;;;;5060286;28;20925;-76
2022/12/28 05:42:55;;;;;;;17.05;14.23;;;6.90;99.90;;;;;;5056031;28;20115;-76
2022/12/28 05:45:21;;;;;;;21.45;13.52;;;6.90;99.90;;;;;;5060248;28;20039;-77
2022/12/28 05:47:46;;;;;;;20.83;12.88;;;6.90;99.90;;;;;;5062845;28;20040;-77
2022/12/28 05:50:12;;;;;;;17.75;12.80;;;6.90;99.90;;;;;;5039687;28;20051;-77
2022/12/28 05:52:38;;;;;;;16.58;12.65;;;7.00;99.90;;;;;;5066084;28;20040;-76
2022/12/28 05:55:04;;;;;;;17.90;13.60;;;7.00;99.90;;;;;;5069542;28;20036;-77
2022/12/28 05:57:30;;;;;;;19.02;14.20;;;7.00;99.90;;;;;;5066981;28;20044;-78
2022/12/28 05:59:56;;;;;;;16.08;13.07;;;7.00;99.90;;;;;;5056228;28;20040;-77
2022/12/28 06:02:26;;;;;;;18.33;13.68;;;7.10;99.90;;;;;;5057638;28;20569;-77
2022/12/28 06:04:52;;;;;;;18.42;13.07;;;7.10;99.90;;;;;;5060615;28;20119;-77
2022/12/28 06:07:18;;;;;;;15.45;12.43;;;7.10;99.90;;;;;;5026549;28;20254;-77
2022/12/28 06:09:44;;;;;;;15.02;12.73;;;7.10;99.90;;;;;;5056504;28;20040;-76
2022/12/28 06:12:10;;;;;;;18.80;12.90;;;7.10;99.90;;;;;;5055776;28;20427;-76
2022/12/28 06:14:36;;;;;;;17.00;13.60;;;7.20;99.90;;;;;;5040319;28;20175;-77
2022/12/28 06:17:02;;;;;;;15.45;12.27;;;7.20;99.90;;;;;;5046900;28;20039;-77
2022/12/28 06:19:28;;;;;;;16.35;10.82;;;7.20;99.90;;;;;;5062838;28;20036;-76
2022/12/28 06:21:53;;;;;;;16.20;11.63;;;7.30;99.90;;;;;;5087417;28;20055;-76
2022/12/28 06:24:19;;;;;;;15.15;11.10;;;7.40;99.90;;;;;;5055053;28;20167;-77
2022/12/28 06:26:45;;;;;;;12.32;9.55;;;7.40;99.90;;;;;;5057712;28;20045;-78
2022/12/28 06:29:11;;;;;;;16.67;10.52;;;7.50;99.90;;;;;;5075005;28;20044;-77
2022/12/28 06:31:39;;;;;;;13.88;10.18;;;7.50;99.90;;;;;;5058984;28;20037;-77
2022/12/28 06:34:07;;;;;;;14.52;10.10;;;7.50;99.90;;;;;;5065122;28;20036;-77
2022/12/28 06:36:39;;;;;;;12.73;9.75;;;7.60;99.90;;;;;;5065965;28;20036;-77
2022/12/28 06:39:06;;;;;;;14.15;10.20;;;;;;;;;;5057279;28;20037;-77
2022/12/28 06:41:32;;;;;;;16.25;10.25;;;;;;;;;;5053851;28;20118;-77
2022/12/28 06:43:59;;;;;;;13.95;10.10;;;;;;;;;;5057962;28;20508;-78
2022/12/28 06:46:26;;;;;;;17.15;10.98;;;;;;;;;;5058222;28;20040;-77
2022/12/28 06:48:53;;;;;;;14.85;9.98;;;;;;;;;;5055630;28;20041;-76
2022/12/28 06:51:20;;;;;;;13.15;9.80;;;;;;;;;;5054221;28;20430;-77
2022/12/28 06:53:47;;;;;;;12.65;9.90;;;;;;;;;;5066146;28;20041;-77
2022/12/28 06:56:15;;;;;;;15.40;10.13;;;;;;;;;;5064600;28;20383;-78
2022/12/28 06:58:41;;;;;;;16.98;10.18;;;;;;;;;;5054076;28;20036;-77
2022/12/28 07:01:08;;;;;;;12.38;9.85;;;;;;;;;;5059144;28;20032;-77
2022/12/28 07:03:35;;;;;;;14.57;9.05;;;;;;;;;;5092932;28;20623;-77
2022/12/28 07:06:01;;;;;;;14.13;10.55;;;;;;;;;;5052322;28;20036;-77
2022/12/28 07:08:28;;;;;;;15.48;9.80;;;;;;;;;;5061236;28;20071;-77
2022/12/28 07:10:54;;;;;;;13.30;9.45;;;;;;;;;;5078221;28;20537;-77
2022/12/28 07:13:20;;;;;;;11.43;9.73;;;;;;;;;;5058907;28;20033;-77
2022/12/28 07:15:46;;;;;;;14.82;11.43;;;;;;;;;;5053805;28;20448;-75
2022/12/28 07:18:12;;;;;;;19.80;11.90;;;;;;;;;;5059338;28;20473;-77
2022/12/28 07:20:39;;;;;;;17.77;11.90;;;;;;;;;;5047494;28;20127;-76
2022/12/28 07:23:05;;;;;;;16.05;10.13;;;;;;;;;;5056568;28;20080;-77
2022/12/28 07:25:31;;;;;;;17.27;10.85;;;;;;;;;;5081820;28;20043;-75
2022/12/28 07:27:57;;;;;;;21.98;11.65;;;;;;;;;;5063979;28;20106;-77
2022/12/28 07:30:24;;;;;;;18.90;11.13;;;;;;;;;;5064614;28;20037;-76
2022/12/28 07:32:50;;;;;;;16.83;11.50;;;;;;;;;;5068910;28;20457;-76
2022/12/28 07:35:16;;;;;;;18.63;11.55;;;;;;;;;;5071107;28;20269;-75
2022/12/28 07:37:42;;;;;;;27.17;12.27;;;;;;;;;;5066898;28;20202;-76
2022/12/28 07:40:08;;;;;;;20.27;12.07;;;;;;;;;;5068723;28;20044;-76
2022/12/28 07:42:35;;;;;;;21.67;12.60;;;;;;;;;;5044162;28;20044;-77
2022/12/28 07:45:01;;;;;;;18.52;11.45;;;;;;;;;;5049192;28;20117;-75
2022/12/28 07:47:27;;;;;;;16.98;12.02;;;;;;;;;;5054503;28;20040;-77
2022/12/28 07:49:53;;;;;;;20.40;11.32;;;;;;;;;;5072893;28;20079;-77
2022/12/28 07:52:19;;;;;;;19.45;10.45;;;7.70;99.90;;;;;;5064364;28;20433;-77
2022/12/28 07:54:44;;;;;;;19.58;10.68;;;8.20;99.90;;;;;;5082749;28;20047;-77
2022/12/28 07:57:11;;;;;;;12.10;9.85;;;8.20;99.90;;;;;;5075535;28;20040;-77
2022/12/28 07:59:36;;;;;;;18.05;9.90;;;8.20;99.90;;;;;;5072020;28;20478;-76
2022/12/28 08:02:02;;;;;;;23.48;10.18;;;8.20;99.90;;;;;;5100707;27;20043;-76
2022/12/28 08:04:28;;;;;;;16.35;9.60;;;8.30;99.90;;;;;;5077944;28;20040;-77
2022/12/28 08:06:54;;;;;;;15.27;10.13;;;8.30;99.90;;;;;;5059482;28;20064;-76
2022/12/28 08:09:19;;;;;;;21.40;10.60;;;8.20;99.90;;;;;;5090824;27;20047;-76
2022/12/28 08:11:47;;;;;;;18.05;11.52;;;8.30;99.90;;;;;;5088235;28;20428;-76
2022/12/28 08:14:13;;;;;;;18.60;10.13;;;8.30;99.90;;;;;;5064071;28;20422;-77
2022/12/28 08:16:42;;;;;;;21.95;11.95;;;8.30;99.90;;;;;;5046773;28;20047;-77
2022/12/28 08:19:08;;;;;;;17.90;10.77;;;8.30;99.90;;;;;;5082245;28;20065;-77
2022/12/28 08:21:44;;;;;;;18.50;10.80;;;8.30;99.90;;;;;;5064675;28;20053;-76
2022/12/28 08:24:14;;;;;;;17.30;10.57;;;8.30;99.90;;;;;;5062311;28;20074;-77
2022/12/28 08:26:40;;;;;;;15.43;10.10;;;8.30;99.90;;;;;;5058156;28;20575;-77
2022/12/28 08:29:12;;;;;;;15.13;9.98;;;8.30;99.90;;;;;;5076445;28;20040;-76
2022/12/28 08:31:41;;;;;;;16.83;10.40;;;8.30;99.90;;;;;;5058831;28;20036;-76
2022/12/28 08:34:10;;;;;;;14.18;9.43;;;8.40;99.90;;;;;;5062410;28;20044;-77
2022/12/28 08:36:36;;;;;;;18.45;10.18;;;8.40;99.90;;;;;;5048810;28;20131;-76
2022/12/28 08:39:02;;;;;;;14.77;10.38;;;8.40;99.90;;;;;;5065900;28;20173;-77
2022/12/28 08:41:28;;;;;;;17.55;11.90;;;;;;;;;;5042519;28;20494;-76
2022/12/28 08:43:55;;;;;;;15.80;10.25;;;;;;;;;;5050058;28;20036;-77
2022/12/28 08:46:23;;;;;;;16.65;8.40;;;;;;;;;;5061171;28;20037;-77
2022/12/28 08:48:50;;;;;;;11.55;8.35;;;;;;;;;;5063779;28;20047;-75
2022/12/28 08:51:28;;;;;;;12.68;8.43;;;;;;;;;;5064869;28;20242;-76
2022/12/28 08:53:54;;;;;;;12.43;7.78;;;;;;;;;;5109323;27;20036;-76
2022/12/28 08:56:21;;;;;;;12.02;6.93;;;;;;;;;;5059220;28;20111;-76
2022/12/28 08:58:48;;;;;;;10.65;7.05;;;;;;;;;;5066872;28;20094;-76
2022/12/28 09:01:18;;;;;;;11.77;6.05;;;;;;;;;;5059592;28;20036;-76
2022/12/28 09:03:46;;;;;;;13.30;7.28;;;;;;;;;;5072975;28;20489;-76
2022/12/28 09:06:14;;;;;;;11.70;6.57;;;;;;;;;;5061491;28;20453;-76
2022/12/28 09:08:41;;;;;;;12.25;6.68;;;;;;;;;;5096737;27;20045;-77
2022/12/28 09:11:08;;;;;;;8.80;5.75;;;;;;;;;;5069699;28;20139;-76
2022/12/28 09:13:35;;;;;;;8.13;5.65;;;;;;;;;;5072234;28;20032;-76
2022/12/28 09:16:03;;;;;;;9.48;5.90;;;;;;;;;;5063231;28;20097;-76
2022/12/28 09:18:30;;;;;;;7.05;5.55;;;;;;;;;;5098635;27;20040;-75
2022/12/28 09:20:56;;;;;;;6.85;5.47;;;;;;;;;;5073941;28;20048;-77
2022/12/28 09:23:23;;;;;;;6.70;5.25;;;;;;;;;;5084829;28;20099;-76
2022/12/28 09:25:49;;;;;;;7.20;5.28;;;;;;;;;;5071856;28;20402;-75
2022/12/28 09:28:15;;;;;;;13.13;6.80;;;;;;;;;;5059311;28;20042;-76
2022/12/28 09:30:41;;;;;;;9.20;6.43;;;;;;;;;;5084951;28;20121;-77
2022/12/28 09:35:56;;;;;;;10.07;6.47;;;;;;;;;;5084706;28;20513;-75
2022/12/28 09:38:22;;;;;;;9.00;6.97;;;;;;;;;;5066182;28;20136;-76
2022/12/28 09:40:48;;;;;;;11.38;6.93;;;;;;;;;;5056350;28;20043;-77
2022/12/28 09:43:15;;;;;;;8.55;6.18;;;;;;;;;;5075214;28;20039;-77
2022/12/28 09:45:42;;;;;;;10.75;5.80;;;;;;;;;;5069182;28;20051;-77
2022/12/28 09:48:11;;;;;;;8.38;5.50;;;;;;;;;;5096272;28;20520;-75
2022/12/28 09:50:37;;;;;;;6.20;4.38;;;;;;;;;;5088747;28;20509;-77
2022/12/28 09:53:03;;;;;;;6.88;5.38;;;;;;;;;;5082752;28;20185;-77
2022/12/28 09:55:31;;;;;;;9.45;5.68;;;;;;;;;;5078516;28;20631;-77
2022/12/28 09:57:58;;;;;;;8.23;5.25;;;;;;;;;;5064324;28;20040;-77
2022/12/28 10:00:50;;;;;;;6.00;4.38;;;8.40;99.90;;;;;;5085593;28;20562;-76
2022/12/28 10:03:18;;;;;;;7.68;6.03;;;;;;;;;;5071898;28;20047;-75
2022/12/28 10:05:44;;;;;;;10.00;7.05;;;;;;;;;;5051402;28;20040;-76
2022/12/28 10:08:12;;;;;;;6.88;5.03;;;;;;;;;;5067586;28;20458;-77
2022/12/28 10:10:39;;;;;;;6.38;5.55;;;;;;;;;;5067307;28;20347;-76
2022/12/28 10:13:13;;;;;;;7.50;6.13;;;;;;;;;;5060053;28;20063;-76
2022/12/28 10:15:39;;;;;;;7.30;5.50;;;;;;;;;;5071422;28;20141;-77
2022/12/28 10:18:05;;;;;;;11.52;7.55;;;;;;;;;;5063248;28;20622;-76
2022/12/28 10:20:32;;;;;;;9.40;7.63;;;;;;;;;;5087768;28;20277;-76
2022/12/28 10:22:58;;;;;;;12.43;9.98;;;;;;;;;;5083704;28;20052;-74
2022/12/28 10:25:25;;;;;;;9.05;7.32;;;;;;;;;;5095621;28;20040;-76
2022/12/28 10:27:52;;;;;;;10.80;7.90;;;;;;;;;;5065585;28;20435;-75
2022/12/28 10:30:25;;;;;;;7.45;5.93;;;;;;;;;;5069133;28;20044;-76
2022/12/28 10:32:54;;;;;;;8.18;5.10;;;;;;;;;;5062871;28;20047;-76
2022/12/28 10:35:44;;;;;;;6.57;5.40;;;;;;;;;;5071949;28;20051;-77
2022/12/28 10:38:24;;;;;;;7.80;5.10;;;;;;;;;;5090497;28;20047;-76
2022/12/28 10:40:56;;;;;;;7.50;6.15;;;;;;;;;;5066184;28;20108;-76
2022/12/28 10:43:22;;;;;;;9.38;5.95;;;;;;;;;;5068259;28;20047;-77
2022/12/28 10:45:50;;;;;;;8.57;6.80;;;;;;;;;;5075043;28;20036;-77
2022/12/28 10:48:25;;;;;;;9.25;6.70;;;;;;;;;;5069607;28;20414;-76
2022/12/28 10:50:55;;;;;;;11.82;8.27;;;;;;;;;;5057188;28;20044;-76
2022/12/28 10:53:31;;;;;;;11.05;8.20;;;;;;;;;;5081165;28;20043;-76
2022/12/28 10:56:06;;;;;;;10.77;8.82;;;;;;;;;;5056603;28;20521;-76
2022/12/28 10:58:33;;;;;;;13.88;8.93;;;;;;;;;;5057723;28;20485;-76
2022/12/28 11:01:11;;;;;;;14.48;10.45;;;;;;;;;;5063202;28;20142;-77
2022/12/28 11:03:39;;;;;;;13.25;9.57;;;;;;;;;;5071336;28;20117;-77
2022/12/28 11:06:19;;;;;;;12.88;10.13;;;;;;;;;;5060056;28;20044;-76
2022/12/28 11:08:58;;;;;;;13.93;10.25;;;;;;;;;;5068072;28;20466;-75
2022/12/28 11:11:25;;;;;;;12.40;10.00;;;;;;;;;;5067198;28;20072;-76
2022/12/28 11:13:54;;;;;;;14.93;10.98;;;;;;;;;;5064017;28;20049;-76
2022/12/28 11:16:20;;;;;;;12.63;9.75;;;;;;;;;;5078262;28;20336;-76
2022/12/28 11:18:47;;;;;;;11.40;9.20;;;;;;;;;;5081688;28;20047;-76
2022/12/28 11:21:17;;;;;;;9.20;7.43;;;;;;;;;;5066440;28;21624;-75
2022/12/28 11:23:44;;;;;;;8.27;7.25;;;;;;;;;;5066385;28;20052;-76
2022/12/28 11:26:13;;;;;;;9.55;6.55;;;;;;;;;;5068266;28;20063;-77
2022/12/28 11:28:41;;;;;;;11.05;7.45;;;;;;;;;;5067397;28;20075;-77
2022/12/28 11:31:08;;;;;;;9.45;7.45;;;;;;;;;;5094553;28;20036;-78
2022/12/28 11:33:35;;;;;;;9.25;7.80;;;;;;;;;;5078674;28;20615;-76
2022/12/28 11:36:01;;;;;;;11.20;9.30;;;;;;;;;;5045268;28;20033;-77
2022/12/28 11:38:44;;;;;;;10.05;7.57;;;;;;;;;;5102257;28;20032;-77
2022/12/28 11:41:27;;;;;;;10.52;8.43;;;;;;;;;;5086096;28;20078;-76
2022/12/28 11:43:53;;;;;;;12.25;9.98;;;;;;;;;;5100756;28;20363;-76
2022/12/28 11:46:22;;;;;;;9.70;8.52;;;;;;;;;;5079499;28;20512;-75
2022/12/28 11:49:03;;;;;;;12.10;8.82;;;;;;;;;;5063696;28;20182;-76
2022/12/28 11:51:33;;;;;;;12.98;8.52;;;;;;;;;;5069006;28;20665;-76
2022/12/28 11:54:03;;;;;;;11.52;8.50;;;;;;;;;;5050792;28;20056;-77
2022/12/28 11:56:44;;;;;;;10.10;7.93;;;;;;;;;;5069151;28;20470;-76
2022/12/28 11:59:27;;;;;;;9.90;8.05;;;;;;;;;;5102036;28;20052;-75
2022/12/28 12:02:23;;;;;;;10.35;8.68;;;;;;;;;;5092556;28;20044;-76
2022/12/28 12:04:49;;;;;;;9.18;7.40;;;;;;;;;;5088615;28;20127;-76
2022/12/28 12:07:16;;;;;;;8.85;7.38;;;;;;;;;;5080478;28;20110;-75
2022/12/28 12:09:44;;;;;;;9.18;7.25;;;;;;;;;;5066555;28;20054;-77
2022/12/28 12:12:13;;;;;;;10.05;8.25;;;;;;;;;;5077115;28;20088;-76
2022/12/28 12:14:42;;;;;;;9.10;7.70;;;;;;;;;;5051600;28;20044;-75
2022/12/28 12:17:21;;;;;;;11.13;8.63;;;;;;;;;;5069178;28;20052;-75
2022/12/28 12:19:48;;;;;;;13.48;8.95;;;;;;;;;;5062630;28;20051;-75
2022/12/28 12:22:25;;;;;;;12.80;9.85;;;;;;;;;;5077787;28;20080;-76
2022/12/28 12:25:15;;;;;;;11.90;8.82;;;;;;;;;;5061160;28;20048;-76
2022/12/28 12:27:44;;;;;;;12.93;8.95;;;;;;;;;;5048099;28;20076;-76
2022/12/28 12:30:15;;;;;;;11.77;8.15;;;;;;;;;;5066639;28;20043;-75
2022/12/28 12:32:43;;;;;;;11.10;9.02;;;;;;;;;;5072511;28;20560;-75
2022/12/28 12:35:16;;;;;;;11.55;8.80;;;;;;;;;;5059455;28;20151;-75
2022/12/28 12:37:48;;;;;;;13.02;8.20;;;;;;;;;;5080379;28;20087;-75
2022/12/28 12:40:20;;;;;;;12.27;7.60;;;;;;;;;;5062281;28;20067;-76
2022/12/28 12:43:05;;;;;;;8.80;7.72;;;;;;;;;;5062336;28;20439;-77
2022/12/28 12:45:50;;;;;;;9.00;6.32;;;;;;;;;;5077712;28;20079;-74
2022/12/28 12:48:16;;;;;;;8.43;6.75;;;;;;;;;;5074683;28;20153;-75
2022/12/28 12:50:49;;;;;;;9.00;6.10;;;;;;;;;;5104838;28;21359;-76
2022/12/28 12:53:18;;;;;;;8.23;5.93;;;;;;;;;;5054318;28;20047;-74
2022/12/28 12:55:54;;;;;;;8.30;6.43;;;;;;;;;;5070513;28;20128;-75
2022/12/28 12:58:36;;;;;;;8.48;6.80;;;;;;;;;;5071901;28;20051;-75
2022/12/28 13:01:21;;;;;;;10.43;7.07;;;;;;;;;;5071832;28;20337;-75
2022/12/28 13:03:49;;;;;;;12.10;7.22;;;;;;;;;;5095699;27;20404;-75
2022/12/28 13:06:16;;;;;;;9.40;6.70;;;;;;;;;;5068052;28;20048;-74
2022/12/28 13:09:00;;;;;;;10.27;6.85;;;;;;;;;;5064467;28;20779;-75
2022/12/28 13:11:28;;;;;;;12.40;5.80;;;;;;;;;;5078950;28;20051;-75
2022/12/28 13:13:54;;;;;;;8.70;6.63;;;;;;;;;;5067901;28;20036;-75
2022/12/28 13:16:24;;;;;;;7.53;6.00;;;;;;;;;;5085548;28;20068;-76
2022/12/28 13:18:54;;;;;;;11.15;6.57;;;;;;;;;;5069048;28;20488;-75
2022/12/28 13:21:21;;;;;;;6.30;5.70;;;;;;;;;;5070989;28;20055;-75
2022/12/28 13:23:48;;;;;;;6.82;5.47;;;;;;;;;;5068160;28;20066;-75
2022/12/28 13:26:15;;;;;;;6.60;4.88;;;;;;;;;;5075888;28;20051;-75
2022/12/28 13:29:10;;;;;;;6.30;5.13;;;;;;;;;;5082208;28;20407;-76
2022/12/28 13:31:38;;;;;;;5.93;4.85;;;;;;;;;;5054941;28;20511;-76
2022/12/28 13:34:13;;;;;;;7.70;5.40;;;;;;;;;;5086860;28;20502;-76
2022/12/28 13:36:48;;;;;;;7.20;5.07;;;;;;;;;;5058071;28;20040;-76
2022/12/28 13:39:15;;;;;;;7.25;4.85;;;;;;;;;;5073561;28;20086;-76
2022/12/28 13:41:58;;;;;;;7.05;4.53;;;;;;;;;;5077332;28;20047;-76
2022/12/28 13:44:24;;;;;;;;;;;;;;;;;;5073312;28;20051;-76
2022/12/28 13:46:55;;;;;;;6.40;3.80;;;;;;;;;;5089840;28;19920;-76
2022/12/28 13:49:21;;;;;;;6.43;4.30;;;;;;;;;;5073578;28;20044;-76
2022/12/28 13:51:48;;;;;;;5.60;4.10;;;;;;;;;;5080606;28;20032;-76
2022/12/28 13:54:14;;;;;;;8.57;4.28;;;;;;;;;;5080578;28;20032;-76
2022/12/28 13:56:42;;;;;;;5.15;4.25;;;;;;;;;;5081539;28;20487;-77
2022/12/28 13:59:10;;;;;;;6.50;4.15;;;;;;;;;;5071071;28;20044;-76
2022/12/28 14:01:39;;;;;;;8.73;4.55;;;;;;;;;;5088039;28;20124;-76
2022/12/28 14:04:06;;;;;;;7.32;4.50;;;;;;;;;;5075749;28;20054;-76
2022/12/28 14:06:33;;;;;;;4.93;3.70;;;;;;;;;;5058689;28;20044;-77
2022/12/28 14:08:59;;;;;;;7.65;4.50;;;;;;;;;;5076019;28;20040;-75
2022/12/28 14:11:26;;;;;;;5.75;3.70;;;;;;;;;;5071539;28;20060;-76
2022/12/28 14:13:53;;;;;;;8.18;4.55;;;;;;;;;;5100690;27;20044;-77
2022/12/28 14:16:19;;;;;;;9.55;4.60;;;;;;;;;;5059158;28;20040;-77
2022/12/28 14:18:46;;;;;;;7.50;4.68;;;;;;;;;;5043395;28;20048;-76
2022/12/28 14:21:12;;;;;;;7.25;4.75;;;;;;;;;;5059021;28;20044;-77
2022/12/28 14:23:39;;;;;;;8.68;5.35;;;;;;;;;;5056289;28;20048;-76
2022/12/28 14:26:23;;;;;;;9.07;4.85;;;;;;;;;;5060751;28;20494;-77
2022/12/28 14:28:53;;;;;;;9.27;4.40;;;;;;;;;;5061657;28;20052;-77
2022/12/28 14:31:25;;;;;;;8.10;4.13;;;;;;;;;;5057292;28;20048;-78
2022/12/28 14:33:52;;;;;;;7.28;4.57;;;;;;;;;;5075559;28;20032;-77
2022/12/28 14:36:21;;;;;;;5.75;3.85;;;;;;;;;;5056384;28;20028;-76